sensor_id;sensor_type;location;lat;lon;timestamp;P1;durP1;ratioP1;P2;durP2;ratioP2
71856;SDS011;63344;46.980;28.882;2023-08-31T00:00:14;12.25;;;2.88;;
71856;SDS011;63344;46.980;28.882;2023-08-31T00:03:09;8.20;;;2.88;;
71856;SDS011;63344;46.980;28.882;2023-08-31T00:08:45;6.68;;;3.38;;
71856;SDS011;63344;46.980;28.882;2023-08-31T00:14:51;6.15;;;3.05;;
71856;SDS011;63344;46.980;28.882;2023-08-31T00:17:31;6.90;;;2.83;;
71856;SDS011;63344;46.980;28.882;2023-08-31T00:20:07;7.05;;;3.08;;
71856;SDS011;63344;46.980;28.882;2023-08-31T00:23:06;5.20;;;2.80;;
71856;SDS011;63344;46.980;28.882;2023-08-31T00:25:47;7.32;;;3.03;;
71856;SDS011;63344;46.980;28.882;2023-08-31T00:28:26;5.13;;;3.00;;
71856;SDS011;63344;46.980;28.882;2023-08-31T00:31:18;8.73;;;3.42;;
71856;SDS011;63344;46.980;28.882;2023-08-31T00:33:55;5.60;;;3.42;;
71856;SDS011;63344;46.980;28.882;2023-08-31T00:36:52;10.10;;;3.80;;
71856;SDS011;63344;46.980;28.882;2023-08-31T00:39:41;5.22;;;2.97;;
71856;SDS011;63344;46.980;28.882;2023-08-31T00:42:26;7.20;;;3.45;;
71856;SDS011;63344;46.980;28.882;2023-08-31T00:45:25;7.10;;;3.00;;
71856;SDS011;63344;46.980;28.882;2023-08-31T00:48:23;6.85;;;3.28;;
71856;SDS011;63344;46.980;28.882;2023-08-31T00:50:58;9.35;;;4.00;;
71856;SDS011;63344;46.980;28.882;2023-08-31T00:53:46;5.15;;;2.97;;
71856;SDS011;63344;46.980;28.882;2023-08-31T00:56:22;8.02;;;3.00;;
71856;SDS011;63344;46.980;28.882;2023-08-31T00:59:01;7.80;;;3.25;;
71856;SDS011;63344;46.980;28.882;2023-08-31T01:01:39;9.23;;;3.40;;
71856;SDS011;63344;46.980;28.882;2023-08-31T01:07:31;5.82;;;3.97;;
71856;SDS011;63344;46.980;28.882;2023-08-31T01:11:45;7.88;;;3.40;;
71856;SDS011;63344;46.980;28.882;2023-08-31T01:14:16;12.38;;;3.95;;
71856;SDS011;63344;46.980;28.882;2023-08-31T01:17:08;9.15;;;3.25;;
71856;SDS011;63344;46.980;28.882;2023-08-31T01:19:50;7.80;;;4.05;;
71856;SDS011;63344;46.980;28.882;2023-08-31T01:22:47;7.38;;;3.65;;
71856;SDS011;63344;46.980;28.882;2023-08-31T01:25:31;9.80;;;3.95;;
71856;SDS011;63344;46.980;28.882;2023-08-31T01:28:01;7.90;;;3.35;;
71856;SDS011;63344;46.980;28.882;2023-08-31T01:30:50;9.68;;;4.88;;
71856;SDS011;63344;46.980;28.882;2023-08-31T01:33:23;7.25;;;4.05;;
71856;SDS011;63344;46.980;28.882;2023-08-31T01:39:02;10.32;;;4.65;;
71856;SDS011;63344;46.980;28.882;2023-08-31T01:44:28;10.30;;;4.65;;
71856;SDS011;63344;46.980;28.882;2023-08-31T01:47:03;15.00;;;6.07;;
71856;SDS011;63344;46.980;28.882;2023-08-31T01:49:42;9.20;;;4.38;;
71856;SDS011;63344;46.980;28.882;2023-08-31T01:52:15;9.13;;;4.72;;
71856;SDS011;63344;46.980;28.882;2023-08-31T01:54:43;8.52;;;3.83;;
71856;SDS011;63344;46.980;28.882;2023-08-31T01:57:24;8.38;;;4.10;;
71856;SDS011;63344;46.980;28.882;2023-08-31T01:59:55;8.48;;;4.30;;
71856;SDS011;63344;46.980;28.882;2023-08-31T02:02:40;9.73;;;4.50;;
71856;SDS011;63344;46.980;28.882;2023-08-31T02:05:09;9.13;;;4.32;;
71856;SDS011;63344;46.980;28.882;2023-08-31T02:07:58;8.32;;;4.13;;
71856;SDS011;63344;46.980;28.882;2023-08-31T02:10:52;10.32;;;4.88;;
71856;SDS011;63344;46.980;28.882;2023-08-31T02:13:28;7.85;;;3.95;;
71856;SDS011;63344;46.980;28.882;2023-08-31T02:16:11;7.30;;;4.13;;
71856;SDS011;63344;46.980;28.882;2023-08-31T02:18:40;9.77;;;4.57;;
71856;SDS011;63344;46.980;28.882;2023-08-31T02:21:23;8.60;;;4.75;;
71856;SDS011;63344;46.980;28.882;2023-08-31T02:23:57;9.02;;;4.90;;
71856;SDS011;63344;46.980;28.882;2023-08-31T02:26:32;9.50;;;4.80;;
71856;SDS011;63344;46.980;28.882;2023-08-31T02:29:16;10.98;;;5.63;;
71856;SDS011;63344;46.980;28.882;2023-08-31T02:31:49;7.43;;;4.60;;
71856;SDS011;63344;46.980;28.882;2023-08-31T02:34:29;8.55;;;4.20;;
71856;SDS011;63344;46.980;28.882;2023-08-31T02:37:13;9.68;;;4.22;;
71856;SDS011;63344;46.980;28.882;2023-08-31T02:39:46;10.07;;;4.82;;
71856;SDS011;63344;46.980;28.882;2023-08-31T02:42:18;11.70;;;5.22;;
71856;SDS011;63344;46.980;28.882;2023-08-31T02:44:57;10.32;;;4.25;;
71856;SDS011;63344;46.980;28.882;2023-08-31T02:47:39;9.80;;;4.57;;
71856;SDS011;63344;46.980;28.882;2023-08-31T02:50:13;7.25;;;3.92;;
71856;SDS011;63344;46.980;28.882;2023-08-31T02:52:51;7.50;;;4.03;;
71856;SDS011;63344;46.980;28.882;2023-08-31T02:55:27;10.52;;;4.90;;
71856;SDS011;63344;46.980;28.882;2023-08-31T02:58:08;8.10;;;4.50;;
71856;SDS011;63344;46.980;28.882;2023-08-31T03:03:51;11.70;;;4.60;;
71856;SDS011;63344;46.980;28.882;2023-08-31T03:06:34;7.72;;;4.45;;
71856;SDS011;63344;46.980;28.882;2023-08-31T03:09:02;13.00;;;5.00;;
71856;SDS011;63344;46.980;28.882;2023-08-31T03:11:41;12.05;;;4.72;;
71856;SDS011;63344;46.980;28.882;2023-08-31T03:17:13;11.20;;;5.10;;
71856;SDS011;63344;46.980;28.882;2023-08-31T03:19:49;14.15;;;5.03;;
71856;SDS011;63344;46.980;28.882;2023-08-31T03:22:20;13.18;;;5.07;;
71856;SDS011;63344;46.980;28.882;2023-08-31T03:24:53;14.15;;;4.93;;
71856;SDS011;63344;46.980;28.882;2023-08-31T03:27:34;17.25;;;7.07;;
71856;SDS011;63344;46.980;28.882;2023-08-31T03:30:27;10.00;;;5.22;;
71856;SDS011;63344;46.980;28.882;2023-08-31T03:36:33;10.85;;;5.47;;
71856;SDS011;63344;46.980;28.882;2023-08-31T03:42:43;11.98;;;4.45;;
71856;SDS011;63344;46.980;28.882;2023-08-31T03:45:14;13.93;;;5.82;;
71856;SDS011;63344;46.980;28.882;2023-08-31T03:51:00;10.05;;;4.82;;
71856;SDS011;63344;46.980;28.882;2023-08-31T03:53:34;10.60;;;4.28;;
71856;SDS011;63344;46.980;28.882;2023-08-31T03:56:29;8.45;;;4.35;;
71856;SDS011;63344;46.980;28.882;2023-08-31T03:59:03;12.02;;;5.03;;
71856;SDS011;63344;46.980;28.882;2023-08-31T04:13:00;9.68;;;5.00;;
71856;SDS011;63344;46.980;28.882;2023-08-31T04:15:51;11.38;;;4.75;;
71856;SDS011;63344;46.980;28.882;2023-08-31T04:22:55;11.95;;;5.07;;
71856;SDS011;63344;46.980;28.882;2023-08-31T04:25:51;9.45;;;4.45;;
71856;SDS011;63344;46.980;28.882;2023-08-31T04:29:05;12.50;;;5.10;;
71856;SDS011;63344;46.980;28.882;2023-08-31T04:32:00;12.90;;;6.22;;
71856;SDS011;63344;46.980;28.882;2023-08-31T04:39:18;11.82;;;5.75;;
71856;SDS011;63344;46.980;28.882;2023-08-31T04:42:17;14.15;;;6.43;;
71856;SDS011;63344;46.980;28.882;2023-08-31T05:36:25;12.13;;;5.20;;
71856;SDS011;63344;46.980;28.882;2023-08-31T05:39:27;9.70;;;4.97;;
71856;SDS011;63344;46.980;28.882;2023-08-31T05:42:14;10.35;;;5.07;;
71856;SDS011;63344;46.980;28.882;2023-08-31T05:45:40;7.88;;;4.25;;
71856;SDS011;63344;46.980;28.882;2023-08-31T05:48:43;9.52;;;4.90;;
71856;SDS011;63344;46.980;28.882;2023-08-31T05:51:54;6.97;;;4.30;;
71856;SDS011;63344;46.980;28.882;2023-08-31T06:02:59;7.45;;;4.30;;
71856;SDS011;63344;46.980;28.882;2023-08-31T06:13:49;9.23;;;3.92;;
71856;SDS011;63344;46.980;28.882;2023-08-31T06:16:37;12.35;;;4.28;;
71856;SDS011;63344;46.980;28.882;2023-08-31T06:23:26;11.43;;;3.92;;
71856;SDS011;63344;46.980;28.882;2023-08-31T06:29:52;6.82;;;3.75;;
71856;SDS011;63344;46.980;28.882;2023-08-31T06:41:30;14.07;;;7.00;;
71856;SDS011;63344;46.980;28.882;2023-08-31T07:05:28;11.55;;;7.35;;
71856;SDS011;63344;46.980;28.882;2023-08-31T07:08:30;12.52;;;6.05;;
71856;SDS011;63344;46.980;28.882;2023-08-31T07:11:25;12.10;;;6.05;;
71856;SDS011;63344;46.980;28.882;2023-08-31T07:21:26;12.45;;;5.50;;
71856;SDS011;63344;46.980;28.882;2023-08-31T07:45:57;14.15;;;5.72;;
71856;SDS011;63344;46.980;28.882;2023-08-31T07:48:48;8.27;;;4.28;;
71856;SDS011;63344;46.980;28.882;2023-08-31T07:51:30;11.40;;;5.07;;
71856;SDS011;63344;46.980;28.882;2023-08-31T07:54:18;15.30;;;5.53;;
71856;SDS011;63344;46.980;28.882;2023-08-31T08:01:13;9.98;;;5.55;;
71856;SDS011;63344;46.980;28.882;2023-08-31T08:03:53;15.15;;;5.35;;
71856;SDS011;63344;46.980;28.882;2023-08-31T08:06:51;17.25;;;5.72;;
71856;SDS011;63344;46.980;28.882;2023-08-31T08:10:29;10.68;;;5.13;;
71856;SDS011;63344;46.980;28.882;2023-08-31T08:21:31;11.48;;;5.40;;
71856;SDS011;63344;46.980;28.882;2023-08-31T08:24:24;18.45;;;7.57;;
71856;SDS011;63344;46.980;28.882;2023-08-31T08:30:44;8.55;;;5.40;;
71856;SDS011;63344;46.980;28.882;2023-08-31T08:37:21;8.82;;;5.45;;
71856;SDS011;63344;46.980;28.882;2023-08-31T08:46:59;12.55;;;5.25;;
71856;SDS011;63344;46.980;28.882;2023-08-31T08:49:47;7.78;;;5.13;;
71856;SDS011;63344;46.980;28.882;2023-08-31T08:55:34;6.82;;;4.30;;
71856;SDS011;63344;46.980;28.882;2023-08-31T08:58:40;6.93;;;4.25;;
71856;SDS011;63344;46.980;28.882;2023-08-31T09:01:15;6.50;;;4.65;;
71856;SDS011;63344;46.980;28.882;2023-08-31T09:04:09;9.63;;;5.30;;
71856;SDS011;63344;46.980;28.882;2023-08-31T09:15:05;6.43;;;4.10;;
71856;SDS011;63344;46.980;28.882;2023-08-31T09:19:17;8.75;;;4.13;;
71856;SDS011;63344;46.980;28.882;2023-08-31T09:22:10;4.07;;;3.50;;
71856;SDS011;63344;46.980;28.882;2023-08-31T10:12:11;21.05;;;7.70;;
71856;SDS011;63344;46.980;28.882;2023-08-31T10:14:48;5.43;;;4.32;;
71856;SDS011;63344;46.980;28.882;2023-08-31T10:28:48;6.45;;;4.30;;
71856;SDS011;63344;46.980;28.882;2023-08-31T10:31:31;6.22;;;3.92;;
71856;SDS011;63344;46.980;28.882;2023-08-31T11:30:00;7.57;;;4.65;;
71856;SDS011;63344;46.980;28.882;2023-08-31T11:33:14;14.63;;;4.70;;
71856;SDS011;63344;46.980;28.882;2023-08-31T11:36:18;7.78;;;5.30;;
71856;SDS011;63344;46.980;28.882;2023-08-31T11:38:50;5.70;;;4.32;;
71856;SDS011;63344;46.980;28.882;2023-08-31T12:13:25;4.00;;;3.60;;
71856;SDS011;63344;46.980;28.882;2023-08-31T12:16:23;5.22;;;3.65;;
71856;SDS011;63344;46.980;28.882;2023-08-31T12:35:25;5.63;;;3.92;;
71856;SDS011;63344;46.980;28.882;2023-08-31T12:49:20;5.30;;;3.88;;
71856;SDS011;63344;46.980;28.882;2023-08-31T13:03:50;8.18;;;3.85;;
71856;SDS011;63344;46.980;28.882;2023-08-31T13:07:04;5.97;;;4.07;;
71856;SDS011;63344;46.980;28.882;2023-08-31T13:14:19;4.32;;;2.97;;
71856;SDS011;63344;46.980;28.882;2023-08-31T13:38:20;4.95;;;3.45;;
71856;SDS011;63344;46.980;28.882;2023-08-31T15:07:20;3.83;;;3.50;;
71856;SDS011;63344;46.980;28.882;2023-08-31T15:37:43;4.53;;;3.05;;
71856;SDS011;63344;46.980;28.882;2023-08-31T15:56:06;4.82;;;3.10;;
71856;SDS011;63344;46.980;28.882;2023-08-31T16:38:13;6.13;;;3.15;;
71856;SDS011;63344;46.980;28.882;2023-08-31T16:52:54;5.32;;;3.42;;
71856;SDS011;63344;46.980;28.882;2023-08-31T16:56:07;6.30;;;3.20;;
71856;SDS011;63344;46.980;28.882;2023-08-31T17:02:53;9.30;;;4.80;;
71856;SDS011;63344;46.980;28.882;2023-08-31T17:06:04;6.60;;;3.60;;
71856;SDS011;63344;46.980;28.882;2023-08-31T17:09:07;11.38;;;3.50;;
71856;SDS011;63344;46.980;28.882;2023-08-31T17:15:38;6.72;;;3.75;;
71856;SDS011;63344;46.980;28.882;2023-08-31T17:18:39;5.93;;;3.22;;
71856;SDS011;63344;46.980;28.882;2023-08-31T17:21:38;7.05;;;3.33;;
71856;SDS011;63344;46.980;28.882;2023-08-31T17:27:58;4.32;;;2.63;;
71856;SDS011;63344;46.980;28.882;2023-08-31T17:38:28;5.38;;;3.00;;
71856;SDS011;63344;46.980;28.882;2023-08-31T17:41:14;4.68;;;2.90;;
71856;SDS011;63344;46.980;28.882;2023-08-31T17:43:56;6.90;;;3.17;;
71856;SDS011;63344;46.980;28.882;2023-08-31T17:46:43;4.68;;;2.70;;
71856;SDS011;63344;46.980;28.882;2023-08-31T17:49:56;6.07;;;3.90;;
71856;SDS011;63344;46.980;28.882;2023-08-31T17:52:37;3.85;;;2.67;;
71856;SDS011;63344;46.980;28.882;2023-08-31T17:59:24;5.45;;;3.10;;
71856;SDS011;63344;46.980;28.882;2023-08-31T18:09:13;9.05;;;3.42;;
71856;SDS011;63344;46.980;28.882;2023-08-31T18:16:43;10.25;;;5.10;;
71856;SDS011;63344;46.980;28.882;2023-08-31T18:19:35;7.40;;;3.53;;
71856;SDS011;63344;46.980;28.882;2023-08-31T18:22:16;5.68;;;3.45;;
71856;SDS011;63344;46.980;28.882;2023-08-31T18:25:33;9.40;;;4.28;;
71856;SDS011;63344;46.980;28.882;2023-08-31T18:28:37;4.57;;;3.35;;
71856;SDS011;63344;46.980;28.882;2023-08-31T18:39:05;5.65;;;3.30;;
71856;SDS011;63344;46.980;28.882;2023-08-31T18:41:52;6.35;;;3.47;;
71856;SDS011;63344;46.980;28.882;2023-08-31T18:48:53;5.32;;;3.03;;
71856;SDS011;63344;46.980;28.882;2023-08-31T18:51:56;7.60;;;4.22;;
71856;SDS011;63344;46.980;28.882;2023-08-31T18:55:14;6.07;;;3.60;;
71856;SDS011;63344;46.980;28.882;2023-08-31T19:20:34;5.70;;;3.63;;
71856;SDS011;63344;46.980;28.882;2023-08-31T19:23:19;10.27;;;3.72;;
71856;SDS011;63344;46.980;28.882;2023-08-31T19:42:07;6.43;;;3.45;;
71856;SDS011;63344;46.980;28.882;2023-08-31T19:45:00;7.43;;;3.72;;
71856;SDS011;63344;46.980;28.882;2023-08-31T19:48:21;6.82;;;4.10;;
71856;SDS011;63344;46.980;28.882;2023-08-31T19:51:21;6.50;;;3.75;;
71856;SDS011;63344;46.980;28.882;2023-08-31T19:57:33;6.00;;;3.47;;
71856;SDS011;63344;46.980;28.882;2023-08-31T20:00:15;8.20;;;4.47;;
71856;SDS011;63344;46.980;28.882;2023-08-31T20:03:19;7.72;;;4.05;;
71856;SDS011;63344;46.980;28.882;2023-08-31T20:06:10;6.38;;;3.60;;
71856;SDS011;63344;46.980;28.882;2023-08-31T20:12:54;8.43;;;3.50;;
71856;SDS011;63344;46.980;28.882;2023-08-31T20:15:39;7.00;;;4.07;;
71856;SDS011;63344;46.980;28.882;2023-08-31T20:18:56;6.65;;;4.30;;
71856;SDS011;63344;46.980;28.882;2023-08-31T20:22:02;6.57;;;4.00;;
71856;SDS011;63344;46.980;28.882;2023-08-31T20:24:42;7.45;;;4.45;;
71856;SDS011;63344;46.980;28.882;2023-08-31T20:27:39;8.70;;;3.58;;
71856;SDS011;63344;46.980;28.882;2023-08-31T20:30:45;6.57;;;4.18;;
71856;SDS011;63344;46.980;28.882;2023-08-31T20:37:20;5.95;;;3.83;;
71856;SDS011;63344;46.980;28.882;2023-08-31T20:40:39;4.78;;;3.60;;
71856;SDS011;63344;46.980;28.882;2023-08-31T20:43:52;7.40;;;4.50;;
71856;SDS011;63344;46.980;28.882;2023-08-31T20:46:44;8.95;;;4.55;;
71856;SDS011;63344;46.980;28.882;2023-08-31T20:49:24;10.82;;;4.78;;
71856;SDS011;63344;46.980;28.882;2023-08-31T20:52:01;9.70;;;5.45;;
71856;SDS011;63344;46.980;28.882;2023-08-31T20:55:00;4.63;;;3.63;;
71856;SDS011;63344;46.980;28.882;2023-08-31T20:57:40;6.97;;;4.53;;
71856;SDS011;63344;46.980;28.882;2023-08-31T21:00:28;9.18;;;3.95;;
71856;SDS011;63344;46.980;28.882;2023-08-31T21:03:02;5.80;;;4.22;;
71856;SDS011;63344;46.980;28.882;2023-08-31T21:05:55;7.32;;;4.28;;
71856;SDS011;63344;46.980;28.882;2023-08-31T21:08:54;7.40;;;4.80;;
71856;SDS011;63344;46.980;28.882;2023-08-31T21:11:54;8.32;;;4.13;;
71856;SDS011;63344;46.980;28.882;2023-08-31T21:14:41;6.88;;;4.43;;
71856;SDS011;63344;46.980;28.882;2023-08-31T21:17:47;6.80;;;3.88;;
71856;SDS011;63344;46.980;28.882;2023-08-31T21:20:38;5.38;;;4.07;;
71856;SDS011;63344;46.980;28.882;2023-08-31T21:23:36;5.35;;;3.60;;
71856;SDS011;63344;46.980;28.882;2023-08-31T21:26:42;5.38;;;3.85;;
71856;SDS011;63344;46.980;28.882;2023-08-31T21:29:22;8.82;;;4.80;;
71856;SDS011;63344;46.980;28.882;2023-08-31T21:32:12;6.90;;;3.83;;
71856;SDS011;63344;46.980;28.882;2023-08-31T21:34:50;7.95;;;3.97;;
71856;SDS011;63344;46.980;28.882;2023-08-31T21:43:58;6.53;;;3.95;;
71856;SDS011;63344;46.980;28.882;2023-08-31T21:46:50;7.35;;;4.30;;
71856;SDS011;63344;46.980;28.882;2023-08-31T21:49:36;7.15;;;4.32;;
71856;SDS011;63344;46.980;28.882;2023-08-31T21:55:28;8.05;;;4.30;;
71856;SDS011;63344;46.980;28.882;2023-08-31T21:58:19;9.45;;;5.25;;
71856;SDS011;63344;46.980;28.882;2023-08-31T22:01:07;7.70;;;4.40;;
71856;SDS011;63344;46.980;28.882;2023-08-31T22:04:11;8.90;;;4.35;;
71856;SDS011;63344;46.980;28.882;2023-08-31T22:06:45;6.65;;;4.35;;
71856;SDS011;63344;46.980;28.882;2023-08-31T22:09:24;6.20;;;4.13;;
71856;SDS011;63344;46.980;28.882;2023-08-31T22:12:47;7.45;;;4.57;;
71856;SDS011;63344;46.980;28.882;2023-08-31T22:15:40;9.63;;;4.75;;
71856;SDS011;63344;46.980;28.882;2023-08-31T22:18:24;8.00;;;4.63;;
71856;SDS011;63344;46.980;28.882;2023-08-31T22:24:44;9.18;;;5.75;;
71856;SDS011;63344;46.980;28.882;2023-08-31T22:31:04;6.22;;;4.20;;
71856;SDS011;63344;46.980;28.882;2023-08-31T22:34:02;7.72;;;4.43;;
71856;SDS011;63344;46.980;28.882;2023-08-31T22:36:51;6.53;;;4.78;;
71856;SDS011;63344;46.980;28.882;2023-08-31T22:39:28;7.97;;;4.47;;
71856;SDS011;63344;46.980;28.882;2023-08-31T22:42:19;5.93;;;4.50;;
71856;SDS011;63344;46.980;28.882;2023-08-31T22:44:57;6.55;;;4.60;;
71856;SDS011;63344;46.980;28.882;2023-08-31T22:47:38;8.45;;;5.05;;
71856;SDS011;63344;46.980;28.882;2023-08-31T22:50:23;5.93;;;3.63;;
71856;SDS011;63344;46.980;28.882;2023-08-31T22:52:55;6.93;;;4.70;;
71856;SDS011;63344;46.980;28.882;2023-08-31T22:55:29;7.35;;;4.20;;
71856;SDS011;63344;46.980;28.882;2023-08-31T22:58:06;7.30;;;4.40;;
71856;SDS011;63344;46.980;28.882;2023-08-31T23:00:44;6.35;;;4.43;;
71856;SDS011;63344;46.980;28.882;2023-08-31T23:03:20;9.30;;;4.72;;
71856;SDS011;63344;46.980;28.882;2023-08-31T23:06:15;7.55;;;5.10;;
71856;SDS011;63344;46.980;28.882;2023-08-31T23:09:12;9.35;;;5.07;;
71856;SDS011;63344;46.980;28.882;2023-08-31T23:12:04;8.23;;;4.65;;
71856;SDS011;63344;46.980;28.882;2023-08-31T23:15:21;8.07;;;5.10;;
71856;SDS011;63344;46.980;28.882;2023-08-31T23:18:00;7.57;;;4.75;;
71856;SDS011;63344;46.980;28.882;2023-08-31T23:20:51;9.25;;;5.15;;
71856;SDS011;63344;46.980;28.882;2023-08-31T23:23:38;6.78;;;4.97;;
71856;SDS011;63344;46.980;28.882;2023-08-31T23:26:26;8.57;;;4.53;;
71856;SDS011;63344;46.980;28.882;2023-08-31T23:29:29;7.00;;;4.47;;
71856;SDS011;63344;46.980;28.882;2023-08-31T23:32:33;8.18;;;3.90;;
71856;SDS011;63344;46.980;28.882;2023-08-31T23:35:12;5.45;;;4.20;;
71856;SDS011;63344;46.980;28.882;2023-08-31T23:37:53;8.63;;;4.00;;
71856;SDS011;63344;46.980;28.882;2023-08-31T23:40:34;7.85;;;4.47;;
71856;SDS011;63344;46.980;28.882;2023-08-31T23:43:04;9.30;;;4.70;;
71856;SDS011;63344;46.980;28.882;2023-08-31T23:45:43;7.47;;;4.45;;
71856;SDS011;63344;46.980;28.882;2023-08-31T23:48:19;6.57;;;4.70;;
71856;SDS011;63344;46.980;28.882;2023-08-31T23:51:26;9.52;;;4.53;;
71856;SDS011;63344;46.980;28.882;2023-08-31T23:56:36;7.75;;;4.90;;
71856;SDS011;63344;46.980;28.882;2023-08-31T23:59:20;5.43;;;4.13;;
